createdAt,value
2023-02-11T00:00:59.464Z,17899.91
2023-02-11T00:02:02.839Z,18222.75
2023-02-11T00:03:05.974Z,17576.31
2023-02-11T00:04:09.306Z,17577.47
2023-02-11T00:05:12.312Z,17898.75
2023-02-11T00:06:15.426Z,16931.44
2023-02-11T00:07:18.671Z,16931.91
2023-02-11T00:08:21.435Z,17255.16
2023-02-11T00:09:24.313Z,17256.41
2023-02-11T00:10:26.960Z,17578.59
2023-02-11T00:11:30.843Z,17579.09
2023-02-11T00:12:34.398Z,17902.09
2023-02-11T00:13:36.921Z,18547.28
2023-02-11T00:14:39.562Z,18869.81
2023-02-11T00:15:42.137Z,18869.28
2023-02-11T00:16:44.874Z,18223.41
2023-02-11T00:17:47.657Z,18224.22
2023-02-11T00:18:50.536Z,18546.88
2023-02-11T00:19:53.499Z,18547.53
2023-02-11T00:20:56.016Z,18547.53
2023-02-11T00:21:58.535Z,18869.56
2023-02-11T00:23:01.183Z,17902.59
2023-02-11T00:24:03.985Z,17579.09
2023-02-11T00:25:06.743Z,17258.63
2023-02-11T00:26:24.611Z,16934.81
2023-02-11T00:27:27.142Z,16611.31
2023-02-11T00:28:29.961Z,16288.94
2023-02-11T00:29:32.421Z,15643.25
2023-02-11T00:30:36.055Z,14676.53
2023-02-11T00:31:38.908Z,14032.19
2023-02-11T00:32:42.740Z,14355.19
2023-02-11T00:33:45.830Z,14677.66
2023-02-11T00:34:51.745Z,15000.34
2023-02-11T00:35:54.352Z,14999.63
2023-02-11T00:36:56.906Z,15322.78
2023-02-11T00:37:59.443Z,15644.34
2023-02-11T00:39:02.250Z,15967.47
2023-02-11T00:40:06.824Z,15967.69
2023-02-11T00:41:09.600Z,15967.81
2023-02-11T00:42:15.390Z,15968.25
2023-02-11T00:43:17.908Z,16612.03
2023-02-11T00:44:20.552Z,16288.81
2023-02-11T00:45:23.703Z,16289.28
2023-02-11T00:46:26.728Z,16289.06
2023-02-11T00:47:29.790Z,15967.25
2023-02-11T00:48:32.793Z,15966.91
2023-02-11T00:49:37.233Z,15322.56
2023-02-11T00:50:39.881Z,15645.88
2023-02-11T00:51:42.631Z,15969.28
2023-02-11T00:52:45.179Z,16613.69
2023-02-11T00:53:47.680Z,16290.22
2023-02-11T00:54:50.315Z,16290.56
2023-02-11T00:55:52.958Z,16290.78
2023-02-11T00:56:55.481Z,16613.22
2023-02-11T00:58:00.276Z,15968.59
2023-02-11T00:59:02.915Z,16612.97
2023-02-11T01:00:07.850Z,15323.53
2023-02-11T01:01:10.393Z,15644.91
2023-02-11T01:02:13.002Z,14677.56
2023-02-11T01:03:15.520Z,14677.97
2023-02-11T01:04:18.170Z,14355.69
2023-02-11T01:05:21.333Z,14355.41
2023-02-11T01:06:24.170Z,13387.56
2023-02-11T01:07:28.251Z,13065.50
2023-02-11T01:08:30.769Z,12421.44
2023-02-11T01:09:33.168Z,12421.94
2023-02-11T01:10:35.691Z,12744.06
2023-02-11T01:11:38.212Z,12422.44
2023-02-11T01:12:40.980Z,13066.56
2023-02-11T01:13:43.857Z,12421.94
2023-02-11T01:14:46.500Z,12744.50
2023-02-11T01:15:49.523Z,13067.09
2023-02-11T01:16:53.221Z,13066.38
2023-02-11T01:17:56.947Z,12744.16
2023-02-11T01:18:59.470Z,12421.94
2023-02-11T01:20:07.029Z,12100.81
2023-02-11T01:21:09.790Z,12098.88
2023-02-11T01:22:12.561Z,11778.38
2023-02-11T01:23:15.072Z,12100.25
2023-02-11T01:24:19.995Z,11779.31
2023-02-11T01:25:22.756Z,12745.97
2023-02-11T01:26:25.518Z,12746.38
2023-02-11T01:27:28.280Z,12744.16
2023-02-11T01:28:32.439Z,11778.78
2023-02-11T01:29:35.964Z,11777.84
2023-02-11T01:30:39.854Z,11456.22
2023-02-11T01:31:42.606Z,11134.09
2023-02-11T01:32:45.570Z,11134.31
2023-02-11T01:33:49.414Z,11134.31
2023-02-11T01:34:52.413Z,11133.97
2023-02-11T01:35:55.535Z,10811.72
2023-02-11T01:37:01.420Z,10812.56
2023-02-11T01:38:05.259Z,11456.69
2023-02-11T01:39:09.243Z,11134.84
2023-02-11T01:40:16.428Z,11135.13
2023-02-11T01:41:20.983Z,11134.31
2023-02-11T01:42:24.346Z,10489.47
2023-02-11T01:43:31.555Z,10168.53
2023-02-11T01:44:40.548Z,10168.78
2023-02-11T01:45:49.540Z,9524.59
2023-02-11T01:46:53.307Z,9845.94
2023-02-11T01:47:56.395Z,9202.25
2023-02-11T01:49:13.014Z,8881.16
2023-02-11T01:50:16.197Z,9524.34
2023-02-11T01:51:27.504Z,9202.72
2023-02-11T01:52:39.849Z,8880.41
2023-02-11T01:54:04.329Z,8880.66
2023-02-11T01:55:29.887Z,8881.06
2023-02-11T01:56:54.166Z,8880.72
2023-02-11T01:58:03.030Z,8880.72
2023-02-11T01:59:15.862Z,8236.25
2023-02-11T02:00:25.336Z,7914.88
2023-02-11T02:01:31.382Z,6948.88
2023-02-11T02:03:20.045Z,6628.09
2023-02-11T02:04:27.980Z,7271.81
2023-02-11T02:05:39.865Z,8236.94
2023-02-11T02:06:53.066Z,7593.78
2023-02-11T02:08:05.787Z,7271.66
2023-02-11T02:09:32.909Z,6950.31
2023-02-11T02:10:37.115Z,7593.69
2023-02-11T02:11:40.110Z,7593.19
2023-02-11T02:12:43.118Z,7593.78
2023-02-11T02:13:46.480Z,7593.53
2023-02-11T02:14:49.238Z,7271.16
2023-02-11T02:15:55.986Z,6305.88
2023-02-11T02:16:58.838Z,5984.06
2023-02-11T02:18:10.481Z,5341.06
2023-02-11T02:19:22.002Z,5662.94
2023-02-11T02:20:58.780Z,5663.03
2023-02-11T02:22:04.254Z,5984.63
2023-02-11T02:23:26.255Z,5663.09
2023-02-11T02:24:43.848Z,6306.31
2023-02-11T02:26:23.858Z,5663.03
2023-02-11T02:27:41.979Z,5341.34
2023-02-11T02:29:40.057Z,4697.81
2023-02-11T02:31:03.812Z,4376.25
2023-02-11T02:32:24.968Z,4054.53
2023-02-11T02:33:51.343Z,3089.84
2023-02-11T02:35:17.859Z,3089.81
2023-02-11T02:36:28.546Z,3411.25
2023-02-11T02:37:37.875Z,2446.81
2023-02-11T02:38:54.825Z,1803.94
2023-02-11T02:40:02.862Z,2125.38
2023-02-11T02:41:15.945Z,2125.38
2023-02-11T02:42:20.388Z,2446.84
2023-02-11T02:43:26.264Z,1482.59
2023-02-11T02:44:29.985Z,1482.59
2023-02-11T02:45:33.473Z,1161.22
2023-02-11T02:46:37.250Z,839.94
2023-02-11T02:47:40.320Z,518.69
2023-02-11T02:48:43.189Z,518.72
2023-02-11T02:49:45.718Z,-123.84
2023-02-11T02:50:49.673Z,-124.00
2023-02-11T02:52:04.322Z,197.09
2023-02-11T02:53:46.196Z,197.06
2023-02-11T02:55:11.878Z,518.44
2023-02-11T02:56:26.399Z,518.31
2023-02-11T02:57:47.158Z,839.84
2023-02-11T02:59:10.686Z,197.28
2023-02-11T03:00:24.121Z,-124.06
2023-02-11T03:01:42.616Z,-766.50
2023-02-11T03:03:02.165Z,-766.38
2023-02-11T03:04:14.645Z,-1088.06
2023-02-11T03:05:51.354Z,-1087.94
2023-02-11T03:07:03.018Z,-766.78
2023-02-11T03:08:42.376Z,-1408.94
2023-02-11T03:10:02.536Z,-1409.00
2023-02-11T03:11:06.734Z,-1409.13
2023-02-11T03:12:10.815Z,-1408.97
2023-02-11T03:13:17.175Z,-1730.53
2023-02-11T03:14:22.221Z,-1409.72
2023-02-11T03:15:28.460Z,-1088.44
2023-02-11T03:16:38.112Z,-445.59
2023-02-11T03:17:46.105Z,-766.72
2023-02-11T03:18:52.103Z,-1087.84
2023-02-11T03:19:56.915Z,-1730.72
2023-02-11T03:21:00.986Z,-1730.09
2023-02-11T03:22:07.714Z,-2693.63
2023-02-11T03:23:16.708Z,-2693.84
2023-02-11T03:24:31.233Z,-3336.03
2023-02-11T03:25:38.312Z,-3336.31
2023-02-11T03:26:50.324Z,-3336.25
2023-02-11T03:28:01.612Z,-3335.97
2023-02-11T03:29:22.719Z,-3657.63
2023-02-11T03:30:33.285Z,-3657.56
2023-02-11T03:32:04.040Z,-3657.72
2023-02-11T03:33:25.381Z,-3336.84
2023-02-11T03:34:38.454Z,-3657.47
2023-02-11T03:35:51.282Z,-3657.38
2023-02-11T03:37:06.770Z,-3979.25
2023-02-11T03:38:33.533Z,-3979.47
2023-02-11T03:39:49.382Z,-3337.22
2023-02-11T03:40:55.740Z,-3336.66
2023-02-11T03:42:01.260Z,-3337.00
2023-02-11T03:43:17.596Z,-3657.97
2023-02-11T03:44:23.473Z,-3657.72
2023-02-11T03:45:28.067Z,-4299.59
2023-02-11T03:46:38.349Z,-4621.16
2023-02-11T03:47:49.637Z,-4299.75
2023-02-11T03:48:57.553Z,-4620.78
2023-02-11T03:50:03.673Z,-4941.66
2023-02-11T03:51:10.277Z,-5262.84
2023-02-11T03:52:14.841Z,-4941.13
2023-02-11T03:53:20.967Z,-5583.22
2023-02-11T03:54:31.405Z,-6225.19
2023-02-11T03:55:39.322Z,-6225.75
2023-02-11T03:56:51.565Z,-6225.03
2023-02-11T03:57:54.684Z,-6225.13
2023-02-11T03:58:58.285Z,-6224.91
2023-02-11T04:00:01.551Z,-6545.50
2023-02-11T04:01:14.815Z,-6546.00
2023-02-11T04:02:18.331Z,-6866.78
2023-02-11T04:03:21.497Z,-6866.78
2023-02-11T04:04:24.937Z,-7508.50
2023-02-11T04:05:28.418Z,-7188.00
2023-02-11T04:06:31.659Z,-7507.78
2023-02-11T04:07:35.024Z,-7829.56
2023-02-11T04:08:38.148Z,-8149.91
2023-02-11T04:09:41.508Z,-8150.44
2023-02-11T04:10:44.753Z,-8151.53
2023-02-11T04:11:47.511Z,-8149.81
2023-02-11T04:12:50.515Z,-8150.75
2023-02-11T04:13:53.273Z,-8471.19
2023-02-11T04:14:56.273Z,-8792.38
2023-02-11T04:15:59.230Z,-8791.84
2023-02-11T04:17:02.156Z,-8793.28
2023-02-11T04:18:05.048Z,-8792.75
2023-02-11T04:19:08.159Z,-8793.47
2023-02-11T04:20:11.762Z,-8792.38
2023-02-11T04:21:14.336Z,-9113.56
2023-02-11T04:22:16.979Z,-9433.25
2023-02-11T04:23:19.567Z,-10074.97
2023-02-11T04:24:22.213Z,-9754.22
2023-02-11T04:25:26.178Z,-10395.94
2023-02-11T04:26:28.738Z,-10396.25
2023-02-11T04:27:31.334Z,-10397.28
2023-02-11T04:28:35.036Z,-10076.41
2023-02-11T04:29:37.871Z,-10076.09
2023-02-11T04:30:40.419Z,-10396.66
2023-02-11T04:31:42.931Z,-10397.38
2023-02-11T04:32:45.431Z,-10076.59
2023-02-11T04:33:47.943Z,-10076.28
2023-02-11T04:34:50.608Z,-10076.28
2023-02-11T04:35:53.350Z,-10077.19
2023-02-11T04:36:55.990Z,-10077.19
2023-02-11T04:37:58.510Z,-10077.41
2023-02-11T04:39:01.124Z,-10077.59
2023-02-11T04:40:04.028Z,-10719.22
2023-02-11T04:41:06.654Z,-11361.22
2023-02-11T04:42:09.317Z,-11362.09
2023-02-11T04:43:11.953Z,-11362.22
2023-02-11T04:44:14.472Z,-11681.97
2023-02-11T04:45:17.112Z,-11681.97
2023-02-11T04:46:19.900Z,-11681.97
2023-02-11T04:47:22.514Z,-12002.34
2023-02-11T04:48:25.888Z,-11682.19
2023-02-11T04:49:28.874Z,-12323.66
2023-02-11T04:50:31.515Z,-12324.38
2023-02-11T04:51:34.134Z,-12004.81
2023-02-11T04:52:36.675Z,-11684.94
2023-02-11T04:53:39.228Z,-11684.00
2023-02-11T04:54:41.843Z,-11364.09
2023-02-11T04:55:44.491Z,-11364.09
2023-02-11T04:56:47.122Z,-11685.63
2023-02-11T04:57:49.639Z,-11686.06
2023-02-11T04:58:52.400Z,-11366.09
2023-02-11T04:59:54.924Z,-11044.13
2023-02-11T05:01:08.415Z,-11687.56
2023-02-11T05:02:11.007Z,-10722.19
2023-02-11T05:03:14.487Z,-11684.94
2023-02-11T05:04:17.581Z,-11685.28
2023-02-11T05:05:20.128Z,-11685.38
2023-02-11T05:06:23.008Z,-11683.56
2023-02-11T05:07:25.527Z,-12003.75
2023-02-11T05:08:28.287Z,-12325.47
2023-02-11T05:09:30.820Z,-12325.34
2023-02-11T05:10:33.690Z,-12323.78
2023-02-11T05:11:36.930Z,-12965.56
2023-02-11T05:12:39.449Z,-12966.44
2023-02-11T05:13:42.100Z,-13285.75
2023-02-11T05:14:44.612Z,-13607.47
2023-02-11T05:15:47.137Z,-13605.78
2023-02-11T05:16:49.695Z,-14247.97
2023-02-11T05:17:52.298Z,-14569.56
2023-02-11T05:18:55.896Z,-14248.25
2023-02-11T05:19:58.424Z,-14889.22
2023-02-11T05:21:06.703Z,-15532.41
2023-02-11T05:22:09.343Z,-15210.94
2023-02-11T05:23:12.469Z,-15209.50
2023-02-11T05:24:14.989Z,-14889.50
2023-02-11T05:25:17.748Z,-15531.53
2023-02-11T05:26:20.515Z,-15529.94
2023-02-11T05:27:23.514Z,-15530.22
2023-02-11T05:28:26.116Z,-15850.19
2023-02-11T05:29:28.798Z,-16489.53
2023-02-11T05:30:31.822Z,-17129.81
2023-02-11T05:31:34.439Z,-18090.69
2023-02-11T05:32:37.202Z,-18409.03
2023-02-11T05:33:39.841Z,-18730.22
2023-02-11T05:34:42.846Z,-19370.31
2023-02-11T05:35:45.503Z,-19688.97
2023-02-11T05:36:48.370Z,-19691.31
2023-02-11T05:37:51.491Z,-20012.13
2023-02-11T05:38:54.490Z,-20007.75
2023-02-11T05:39:57.373Z,-20327.03
2023-02-11T05:41:00.752Z,-20330.75
2023-02-11T05:42:03.628Z,-20330.00
2023-02-11T05:43:06.860Z,-20327.78
2023-02-11T05:44:10.461Z,-20329.63
2023-02-11T05:45:13.825Z,-20331.47
2023-02-11T05:46:18.122Z,-20332.03
2023-02-11T05:47:21.263Z,-20330.00
2023-02-11T05:48:24.386Z,-20328.16
2023-02-11T05:49:27.754Z,-20329.25
2023-02-11T05:50:30.869Z,-20329.09
2023-02-11T05:51:33.996Z,-20328.91
2023-02-11T05:52:37.246Z,-20328.91
2023-02-11T05:53:40.597Z,-20329.81
2023-02-11T05:54:43.724Z,-20329.63
2023-02-11T05:55:46.843Z,-20330.38
2023-02-11T05:56:49.963Z,-20329.09
2023-02-11T05:57:53.200Z,-20328.50
2023-02-11T05:58:56.323Z,-20326.09
2023-02-11T05:59:59.445Z,-20005.19
2023-02-11T06:01:02.567Z,-20006.47
2023-02-11T06:02:05.692Z,-20006.66
2023-02-11T06:03:09.050Z,-19684.47
2023-02-11T06:04:12.412Z,-19683.94
2023-02-11T06:05:15.897Z,-19366.78
2023-02-11T06:06:19.376Z,-19367.13
2023-02-11T06:07:22.616Z,-19366.41
2023-02-11T06:08:25.860Z,-19365.00
2023-02-11T06:09:29.347Z,-19366.25
2023-02-11T06:10:32.586Z,-19687.34
2023-02-11T06:11:36.075Z,-19689.84
2023-02-11T06:12:39.785Z,-19690.59
2023-02-11T06:13:42.790Z,-20011.19
2023-02-11T06:14:45.677Z,-20008.66
2023-02-11T06:15:57.595Z,-20332.19
2023-02-11T06:17:01.278Z,-20331.09
2023-02-11T06:18:04.276Z,-20333.69
2023-02-11T06:19:07.159Z,-20330.19
2023-02-11T06:20:11.359Z,-20331.09
2023-02-11T06:21:14.246Z,-20332.59
2023-02-11T06:22:17.002Z,-20332.78
2023-02-11T06:23:19.942Z,-20333.88
2023-02-11T06:24:44.290Z,-20333.31
2023-02-11T06:25:45.376Z,-20331.47
2023-02-11T06:26:47.895Z,-20333.69
2023-02-11T06:27:50.537Z,-20332.41
2023-02-11T06:28:53.183Z,-20332.22
2023-02-11T06:29:55.818Z,-20332.59
2023-02-11T06:30:59.729Z,-20331.84
2023-02-11T06:32:02.500Z,-20330.38
2023-02-11T06:33:05.301Z,-20330.00
2023-02-11T06:34:09.521Z,-20332.97
2023-02-11T06:35:13.141Z,-20334.06
2023-02-11T06:36:19.109Z,-20336.84
2023-02-11T06:37:21.863Z,-20334.44
2023-02-11T06:38:24.352Z,-20332.59
2023-02-11T06:39:26.991Z,-20335.53
2023-02-11T06:40:29.553Z,-20334.81
2023-02-11T06:41:32.320Z,-20336.28
2023-02-11T06:42:36.379Z,-20334.25
2023-02-11T06:43:39.958Z,-20333.31
2023-02-11T06:44:42.515Z,-20332.59
2023-02-11T06:45:45.040Z,-20334.25
2023-02-11T06:46:47.823Z,-20334.06
2023-02-11T06:47:52.952Z,-20337.75
2023-02-11T06:48:55.594Z,-20337.19
2023-02-11T06:49:58.114Z,-20337.94
2023-02-11T06:51:09.771Z,-20339.22
2023-02-11T06:52:12.449Z,-20336.28
2023-02-11T06:53:15.171Z,-20337.75
2023-02-11T06:54:17.919Z,-20338.88
2023-02-11T06:55:20.445Z,-20338.13
2023-02-11T06:56:24.401Z,-20339.59
2023-02-11T06:57:26.922Z,-20340.34
2023-02-11T06:58:29.442Z,-20339.59
2023-02-11T06:59:31.982Z,-20342.38
2023-02-11T07:00:34.497Z,-20343.28
2023-02-11T07:01:37.033Z,-20342.38
2023-02-11T07:02:39.609Z,-20342.19
2023-02-11T07:03:44.564Z,-20343.28
2023-02-11T07:04:47.086Z,-20341.44
2023-02-11T07:05:49.878Z,-20342.19
2023-02-11T07:06:52.609Z,-20341.06
2023-02-11T07:07:55.134Z,-20339.41
2023-02-11T07:08:57.658Z,-20341.25
2023-02-11T07:10:00.198Z,-20343.28
2023-02-11T07:11:19.135Z,-20343.28
2023-02-11T07:12:21.659Z,-20343.09
2023-02-11T07:13:24.409Z,-20344.41
2023-02-11T07:14:26.935Z,-20345.13
2023-02-11T07:15:29.451Z,-20343.47
2023-02-11T07:16:33.243Z,-20343.84
2023-02-11T07:17:36.291Z,-20344.03
2023-02-11T07:18:39.313Z,-20343.28
2023-02-11T07:19:41.951Z,-20342.00
2023-02-11T07:20:44.946Z,-20343.09
2023-02-11T07:21:48.823Z,-20343.66
2023-02-11T07:22:51.316Z,-20345.69
2023-02-11T07:23:54.305Z,-20346.44
2023-02-11T07:24:56.829Z,-20346.25
2023-02-11T07:26:02.597Z,-20345.69
2023-02-11T07:27:05.111Z,-20348.84
2023-02-11T07:28:07.650Z,-20351.22
2023-02-11T07:29:10.152Z,-20347.72
2023-02-11T07:30:13.515Z,-20345.13
2023-02-11T07:31:21.728Z,-20345.88
2023-02-11T07:32:24.319Z,-20349.19
2023-02-11T07:33:26.968Z,-20349.94
2023-02-11T07:34:29.516Z,-20351.41
2023-02-11T07:35:32.244Z,-20350.84
2023-02-11T07:36:35.019Z,-20351.56
2023-02-11T07:37:37.768Z,-20031.22
2023-02-11T07:38:41.006Z,-19710.31
2023-02-11T07:39:43.894Z,-19712.47
2023-02-11T07:40:46.896Z,-19073.00
2023-02-11T07:41:49.772Z,-18430.31
2023-02-11T07:42:53.020Z,-17790.13
2023-02-11T07:43:56.496Z,-17468.75
2023-02-11T07:44:59.499Z,-17467.00
2023-02-11T07:46:08.147Z,-18111.50
2023-02-11T07:47:11.264Z,-17471.50
2023-02-11T07:48:14.383Z,-17150.72
2023-02-11T07:49:17.628Z,-16830.41
2023-02-11T07:50:20.745Z,-16511.16
2023-02-11T07:51:26.872Z,-16511.75
2023-02-11T07:52:31.198Z,-16190.75
2023-02-11T07:53:34.429Z,-15869.28
2023-02-11T07:54:37.550Z,-15550.16
2023-02-11T07:55:40.675Z,-15551.03
2023-02-11T07:56:44.154Z,-15228.66
2023-02-11T07:57:47.280Z,-15226.94
2023-02-11T07:58:51.240Z,-15867.94
2023-02-11T07:59:54.481Z,-15870.19
2023-02-11T08:01:08.818Z,-15870.31
2023-02-11T08:02:12.073Z,-15548.69
2023-02-11T08:03:15.365Z,-15549.13
2023-02-11T08:04:18.611Z,-15227.50
2023-02-11T08:05:21.858Z,-15549.56
2023-02-11T08:06:27.132Z,-15551.16
2023-02-11T08:07:30.616Z,-15228.06
2023-02-11T08:08:33.855Z,-15228.22
2023-02-11T08:09:37.215Z,-15228.38
2023-02-11T08:10:40.458Z,-15549.28
2023-02-11T08:11:44.801Z,-15550.28
2023-02-11T08:12:48.748Z,-15549.44
2023-02-11T08:13:52.222Z,-15871.06
2023-02-11T08:14:56.784Z,-15550.72
2023-02-11T08:15:59.926Z,-15230.06
2023-02-11T08:17:03.644Z,-15229.38
2023-02-11T08:18:06.631Z,-15549.56
2023-02-11T08:19:13.600Z,-15872.69
2023-02-11T08:20:16.471Z,-15551.47
2023-02-11T08:21:20.560Z,-15552.47
2023-02-11T08:22:23.194Z,-15232.22
2023-02-11T08:23:25.957Z,-14913.59
2023-02-11T08:24:28.484Z,-14272.94
2023-02-11T08:25:31.600Z,-13951.16
2023-02-11T08:26:35.503Z,-13949.72
2023-02-11T08:27:38.208Z,-13948.78
2023-02-11T08:28:42.940Z,-14590.06
2023-02-11T08:29:45.573Z,-14589.78
2023-02-11T08:30:48.150Z,-14269.16
2023-02-11T08:31:51.052Z,-14589.78
2023-02-11T08:32:53.691Z,-14590.06
2023-02-11T08:33:59.740Z,-14910.94
2023-02-11T08:35:02.386Z,-14911.78
2023-02-11T08:36:13.739Z,-14592.00
2023-02-11T08:37:16.301Z,-14591.16
2023-02-11T08:38:18.701Z,-14592.81
2023-02-11T08:39:23.024Z,-14593.78
2023-02-11T08:40:25.657Z,-13951.97
2023-02-11T08:41:28.199Z,-13629.00
2023-02-11T08:42:30.941Z,-13948.00
2023-02-11T08:43:34.074Z,-14910.25
2023-02-11T08:44:37.034Z,-15231.06
2023-02-11T08:45:40.080Z,-15553.63
2023-02-11T08:46:42.708Z,-15232.94
2023-02-11T08:47:47.406Z,-15554.66
2023-02-11T08:48:50.265Z,-15552.19
2023-02-11T08:49:52.787Z,-16194.81
2023-02-11T08:50:56.365Z,-16194.06
2023-02-11T08:52:03.950Z,-16834.78
2023-02-11T08:53:06.470Z,-16835.25
2023-02-11T08:54:10.182Z,-17474.56
2023-02-11T08:55:12.709Z,-18437.75
2023-02-11T08:56:16.671Z,-18758.19
2023-02-11T08:57:19.293Z,-18757.16
2023-02-11T08:58:22.551Z,-19722.88
2023-02-11T08:59:25.199Z,-19399.81
2023-02-11T09:00:28.073Z,-20042.88
2023-02-11T09:01:32.239Z,-20043.97
2023-02-11T09:02:35.029Z,-20042.31
2023-02-11T09:03:37.557Z,-20361.34
2023-02-11T09:04:40.559Z,-20361.19
2023-02-11T09:05:47.641Z,-20363.97
2023-02-11T09:06:50.278Z,-20363.59
2023-02-11T09:07:52.968Z,-20363.22
2023-02-11T09:08:57.010Z,-20362.50
2023-02-11T09:09:59.523Z,-20362.50
2023-02-11T09:11:02.531Z,-20362.31
2023-02-11T09:12:05.288Z,-20361.00
2023-02-11T09:13:07.941Z,-20357.69
2023-02-11T09:14:18.608Z,-20358.06
2023-02-11T09:15:21.251Z,-20359.19
2023-02-11T09:16:26.698Z,-20359.53
2023-02-11T09:17:29.533Z,-20360.09
2023-02-11T09:18:32.290Z,-20362.88
2023-02-11T09:19:34.831Z,-20360.09
2023-02-11T09:20:37.327Z,-20356.41
2023-02-11T09:21:39.969Z,-20359.53
2023-02-11T09:22:42.492Z,-20360.47
2023-02-11T09:23:47.670Z,-20361.56
2023-02-11T09:24:50.178Z,-20363.78
2023-02-11T09:25:52.892Z,-20362.88
2023-02-11T09:26:55.466Z,-20362.13
2023-02-11T09:27:58.122Z,-20361.75
2023-02-11T09:29:01.833Z,-20360.47
2023-02-11T09:30:04.712Z,-20360.66
2023-02-11T09:31:09.560Z,-20359.91
2023-02-11T09:32:12.321Z,-20359.91
2023-02-11T09:33:15.033Z,-20358.81
2023-02-11T09:34:17.674Z,-20356.59
2023-02-11T09:35:20.332Z,-20357.66
2023-02-11T09:36:29.196Z,-20355.63
2023-02-11T09:37:32.076Z,-20033.41
2023-02-11T09:38:35.205Z,-19712.47
2023-02-11T09:39:38.081Z,-19393.81
2023-02-11T09:40:46.722Z,-19396.13
2023-02-11T09:41:59.328Z,-19076.13
2023-02-11T09:43:12.285Z,-19076.84
2023-02-11T09:44:22.728Z,-19078.22
2023-02-11T09:45:28.969Z,-19401.06
2023-02-11T09:46:38.573Z,-19399.31
2023-02-11T09:47:49.736Z,-19720.53
2023-02-11T09:48:55.257Z,-19717.50
2023-02-11T09:50:02.168Z,-20036.31
2023-02-11T09:51:06.060Z,-20036.69
2023-02-11T09:52:24.183Z,-20040.69
2023-02-11T09:53:40.028Z,-20362.09
2023-02-11T09:55:00.920Z,-20361.53
2023-02-11T09:56:12.674Z,-20363.94
2023-02-11T09:57:27.983Z,-20360.44
2023-02-11T09:58:37.399Z,-20363.97
2023-02-11T09:59:40.875Z,-20363.22
2023-02-11T10:00:46.160Z,-20362.88
2023-02-11T10:02:03.559Z,-20364.34
2023-02-11T10:03:38.966Z,-20365.25
2023-02-11T10:05:41.795Z,-20364.16
2023-02-11T10:07:22.304Z,-20363.59
2023-02-11T10:08:25.532Z,-20366.56
2023-02-11T10:09:32.507Z,-20363.41
2023-02-11T10:11:20.020Z,-20365.44
2023-02-11T10:12:49.191Z,-20368.78
2023-02-11T10:14:10.672Z,-20368.41
2023-02-11T10:15:19.913Z,-20369.88
2023-02-11T10:17:05.870Z,-20375.41
2023-02-11T10:18:27.716Z,-20376.34
2023-02-11T10:19:39.590Z,-20375.41
2023-02-11T10:21:00.833Z,-20377.25
2023-02-11T10:22:23.642Z,-20382.06
2023-02-11T10:23:32.405Z,-20381.31
2023-02-11T10:24:37.679Z,-20378.56
2023-02-11T10:25:47.531Z,-20376.34
2023-02-11T10:26:52.203Z,-20376.53
2023-02-11T10:27:59.933Z,-20378.38
2023-02-11T10:29:14.168Z,-20378.38
2023-02-11T10:30:22.211Z,-20375.97
2023-02-11T10:31:34.427Z,-20377.25
2023-02-11T10:32:48.542Z,-20379.84
2023-02-11T10:34:00.300Z,-20382.81
2023-02-11T10:35:15.670Z,-20383.16
2023-02-11T10:36:21.069Z,-20379.44
2023-02-11T10:37:24.019Z,-20380.19
2023-02-11T10:38:28.147Z,-20057.06
2023-02-11T10:39:32.069Z,-20058.88
2023-02-11T10:40:34.631Z,-20058.88
2023-02-11T10:41:43.623Z,-20060.34
2023-02-11T10:42:55.420Z,-20060.69
2023-02-11T10:44:00.911Z,-20060.34
2023-02-11T10:45:23.287Z,-20060.69
2023-02-11T10:46:45.611Z,-19743.50
2023-02-11T10:48:01.649Z,-18779.09
2023-02-11T10:49:17.359Z,-18776.53
2023-02-11T10:50:40.497Z,-19420.50
2023-02-11T10:51:56.102Z,-19099.81
2023-02-11T10:53:41.013Z,-19419.97
2023-02-11T10:55:21.825Z,-19420.16
2023-02-11T10:56:38.971Z,-19423.69
2023-02-11T10:58:05.595Z,-19746.53
2023-02-11T10:59:37.562Z,-19104.00
2023-02-11T11:01:02.767Z,-19424.75
2023-02-11T11:02:32.055Z,-19421.91
2023-02-11T11:03:47.123Z,-19743.31
2023-02-11T11:04:49.823Z,-19420.84
2023-02-11T11:05:58.848Z,-20063.63
2023-02-11T11:07:24.087Z,-20387.75
2023-02-11T11:08:45.089Z,-19745.47
2023-02-11T11:09:50.490Z,-19743.50
2023-02-11T11:11:07.318Z,-20060.69
2023-02-11T11:12:25.901Z,-20384.66
2023-02-11T11:13:32.140Z,-20384.97
2023-02-11T11:14:34.689Z,-20059.25
2023-02-11T11:15:37.429Z,-20381.28
2023-02-11T11:16:54.447Z,-20392.59
2023-02-11T11:18:25.343Z,-20070.72
2023-02-11T11:19:55.776Z,-19109.41
2023-02-11T11:21:24.590Z,-17822.38
2023-02-11T11:22:27.217Z,-17186.72
2023-02-11T11:23:31.420Z,-16221.31
2023-02-11T11:24:44.626Z,-15901.25
2023-02-11T11:26:00.345Z,-15260.50
2023-02-11T11:27:05.395Z,-14618.69
2023-02-11T11:28:21.623Z,-13975.91
2023-02-11T11:29:40.550Z,-13333.03
2023-02-11T11:30:43.499Z,-12366.00
2023-02-11T11:31:59.583Z,-12690.69
2023-02-11T11:33:02.758Z,-12047.03
2023-02-11T11:34:23.276Z,-11726.41
2023-02-11T11:35:33.115Z,-11406.09
2023-02-11T11:36:40.436Z,-10118.97
2023-02-11T11:37:43.078Z,-9474.09
2023-02-11T11:39:01.081Z,-9796.97
2023-02-11T11:40:15.381Z,-9155.34
2023-02-11T11:41:30.737Z,-8830.44
2023-02-11T11:42:36.248Z,-8508.31
2023-02-11T11:43:39.007Z,-8509.09
2023-02-11T11:44:41.765Z,-8509.28
2023-02-11T11:45:59.646Z,-8829.81
2023-02-11T11:47:12.970Z,-9151.91
2023-02-11T11:48:42.854Z,-8828.34
2023-02-11T11:50:09.622Z,-9794.91
2023-02-11T11:51:13.941Z,-9150.41
2023-02-11T11:52:17.066Z,-9151.53
2023-02-11T11:53:41.781Z,-9153.38
2023-02-11T11:54:52.459Z,-8506.91
2023-02-11T11:56:01.826Z,-9151.34
2023-02-11T11:57:15.623Z,-8830.00
2023-02-11T11:58:23.710Z,-8830.72
2023-02-11T11:59:28.116Z,-8508.94
2023-02-11T12:00:51.937Z,-7864.88
2023-02-11T12:02:08.611Z,-7866.13
2023-02-11T12:03:45.396Z,-7223.69
2023-02-11T12:04:48.514Z,-6257.31
2023-02-11T12:06:18.653Z,-6257.53
2023-02-11T12:07:40.733Z,-5933.72
2023-02-11T12:09:28.241Z,-6898.88
2023-02-11T12:10:55.850Z,-7543.09
2023-02-11T12:12:27.053Z,-6901.19
2023-02-11T12:13:39.170Z,-6577.31
2023-02-11T12:15:00.412Z,-6898.00
2023-02-11T12:16:29.496Z,-8187.03
2023-02-11T12:17:51.180Z,-8510.16
2023-02-11T12:18:54.540Z,-7544.00
2023-02-11T12:20:34.746Z,-7545.66
2023-02-11T12:22:03.905Z,-7544.38
2023-02-11T12:23:35.596Z,-7545.34
2023-02-11T12:24:51.072Z,-6902.16
2023-02-11T12:26:12.909Z,-6579.78
2023-02-11T12:27:49.872Z,-6901.41
2023-02-11T12:29:11.116Z,-6580.50
2023-02-11T12:30:35.243Z,-6578.47
2023-02-11T12:31:49.244Z,-7223.25
2023-02-11T12:33:07.294Z,-7222.31
2023-02-11T12:34:47.076Z,-7866.59
2023-02-11T12:36:02.546Z,-8189.16
2023-02-11T12:37:16.939Z,-7865.94
2023-02-11T12:38:30.509Z,-8509.91
2023-02-11T12:39:45.514Z,-9153.66
2023-02-11T12:41:46.788Z,-9473.72
2023-02-11T12:43:20.661Z,-9794.81
2023-02-11T12:44:52.102Z,-10117.84
2023-02-11T12:46:03.704Z,-10438.16
2023-02-11T12:47:23.917Z,-10439.63
2023-02-11T12:48:51.026Z,-10441.47
2023-02-11T12:50:11.547Z,-10120.59
2023-02-11T12:51:21.985Z,-9478.19
2023-02-11T12:52:59.789Z,-9156.00
2023-02-11T12:54:36.148Z,-8833.06
2023-02-11T12:55:43.361Z,-8832.06
2023-02-11T12:57:14.914Z,-9476.88
2023-02-11T12:58:29.603Z,-9478.59
2023-02-11T12:59:59.068Z,-8193.59
2023-02-11T13:01:06.417Z,-6583.16
2023-02-11T13:02:18.560Z,-5295.53
2023-02-11T13:03:39.399Z,-4649.84
2023-02-11T13:04:50.328Z,-4651.81
2023-02-11T13:06:00.274Z,-3684.78
2023-02-11T13:07:10.838Z,-2717.78
2023-02-11T13:08:16.002Z,-1426.28
2023-02-11T13:09:51.415Z,-2070.91
2023-02-11T13:11:14.387Z,-4004.75